sensor_id;sensor_type;location;lat;lon;timestamp;P1;durP1;ratioP1;P2;durP2;ratioP2
22675;SDS011;12521;43.310;21.876;2023-06-22T00:04:01;16.0;;;14.0;;
22675;SDS011;12521;43.310;21.876;2023-06-22T00:08:38;17.0;;;15.0;;
22675;SDS011;12521;43.310;21.876;2023-06-22T00:13:15;17.0;;;15.0;;
22675;SDS011;12521;43.310;21.876;2023-06-22T00:17:52;16.0;;;14.0;;
22675;SDS011;12521;43.310;21.876;2023-06-22T00:22:29;16.0;;;14.0;;
22675;SDS011;12521;43.310;21.876;2023-06-22T00:27:06;16.0;;;14.0;;
22675;SDS011;12521;43.310;21.876;2023-06-22T00:31:43;16.0;;;14.0;;
22675;SDS011;12521;43.310;21.876;2023-06-22T00:36:19;16.0;;;14.0;;
22675;SDS011;12521;43.310;21.876;2023-06-22T00:40:56;18.0;;;16.0;;
22675;SDS011;12521;43.310;21.876;2023-06-22T00:45:32;18.0;;;16.0;;
22675;SDS011;12521;43.310;21.876;2023-06-22T00:50:20;19.0;;;17.0;;
22675;SDS011;12521;43.310;21.876;2023-06-22T00:55:04;19.0;;;17.0;;
22675;SDS011;12521;43.310;21.876;2023-06-22T00:59:44;18.0;;;16.0;;
22675;SDS011;12521;43.310;21.876;2023-06-22T01:04:37;18.0;;;16.0;;
22675;SDS011;12521;43.310;21.876;2023-06-22T01:09:31;17.0;;;16.0;;
22675;SDS011;12521;43.310;21.876;2023-06-22T01:14:39;17.0;;;16.0;;
22675;SDS011;12521;43.310;21.876;2023-06-22T01:19:45;19.0;;;16.0;;
22675;SDS011;12521;43.310;21.876;2023-06-22T01:24:59;19.0;;;16.0;;
22675;SDS011;12521;43.310;21.876;2023-06-22T01:29:51;21.0;;;16.0;;
22675;SDS011;12521;43.310;21.876;2023-06-22T01:34:40;21.0;;;16.0;;
22675;SDS011;12521;43.310;21.876;2023-06-22T01:39:21;20.0;;;17.0;;
22675;SDS011;12521;43.310;21.876;2023-06-22T01:44:02;20.0;;;17.0;;
22675;SDS011;12521;43.310;21.876;2023-06-22T01:48:43;20.0;;;18.0;;
22675;SDS011;12521;43.310;21.876;2023-06-22T01:53:21;20.0;;;18.0;;
22675;SDS011;12521;43.310;21.876;2023-06-22T01:58:00;20.0;;;18.0;;
22675;SDS011;12521;43.310;21.876;2023-06-22T02:02:52;20.0;;;18.0;;
22675;SDS011;12521;43.310;21.876;2023-06-22T02:08:00;19.0;;;17.0;;
22675;SDS011;12521;43.310;21.876;2023-06-22T02:12:58;19.0;;;17.0;;
22675;SDS011;12521;43.310;21.876;2023-06-22T02:17:47;19.0;;;17.0;;
22675;SDS011;12521;43.310;21.876;2023-06-22T02:22:25;19.0;;;16.0;;
22675;SDS011;12521;43.310;21.876;2023-06-22T02:27:03;19.0;;;16.0;;
22675;SDS011;12521;43.310;21.876;2023-06-22T02:31:41;19.0;;;15.0;;
22675;SDS011;12521;43.310;21.876;2023-06-22T02:36:18;19.0;;;15.0;;
22675;SDS011;12521;43.310;21.876;2023-06-22T02:40:55;20.0;;;16.0;;
22675;SDS011;12521;43.310;21.876;2023-06-22T02:45:31;20.0;;;16.0;;
22675;SDS011;12521;43.310;21.876;2023-06-22T02:50:09;20.0;;;16.0;;
22675;SDS011;12521;43.310;21.876;2023-06-22T02:54:46;20.0;;;16.0;;
22675;SDS011;12521;43.310;21.876;2023-06-22T02:59:22;18.0;;;16.0;;
22675;SDS011;12521;43.310;21.876;2023-06-22T03:03:59;18.0;;;16.0;;
22675;SDS011;12521;43.310;21.876;2023-06-22T03:08:36;17.0;;;16.0;;
22675;SDS011;12521;43.310;21.876;2023-06-22T03:13:12;17.0;;;16.0;;
22675;SDS011;12521;43.310;21.876;2023-06-22T03:17:49;17.0;;;16.0;;
22675;SDS011;12521;43.310;21.876;2023-06-22T03:22:25;18.0;;;16.0;;
22675;SDS011;12521;43.310;21.876;2023-06-22T03:27:03;18.0;;;16.0;;
22675;SDS011;12521;43.310;21.876;2023-06-22T03:31:41;19.0;;;17.0;;
22675;SDS011;12521;43.310;21.876;2023-06-22T03:36:19;19.0;;;17.0;;
22675;SDS011;12521;43.310;21.876;2023-06-22T03:40:55;18.0;;;16.0;;
22675;SDS011;12521;43.310;21.876;2023-06-22T03:45:32;18.0;;;16.0;;
22675;SDS011;12521;43.310;21.876;2023-06-22T03:50:10;17.0;;;16.0;;
22675;SDS011;12521;43.310;21.876;2023-06-22T03:54:46;17.0;;;16.0;;
22675;SDS011;12521;43.310;21.876;2023-06-22T03:59:23;18.0;;;16.0;;
22675;SDS011;12521;43.310;21.876;2023-06-22T04:04:00;18.0;;;16.0;;
22675;SDS011;12521;43.310;21.876;2023-06-22T04:08:37;20.0;;;17.0;;
22675;SDS011;12521;43.310;21.876;2023-06-22T04:13:13;20.0;;;17.0;;
22675;SDS011;12521;43.310;21.876;2023-06-22T04:17:50;20.0;;;17.0;;
22675;SDS011;12521;43.310;21.876;2023-06-22T04:22:27;20.0;;;17.0;;
22675;SDS011;12521;43.310;21.876;2023-06-22T04:27:05;20.0;;;17.0;;
22675;SDS011;12521;43.310;21.876;2023-06-22T04:31:42;19.0;;;17.0;;
22675;SDS011;12521;43.310;21.876;2023-06-22T04:36:19;19.0;;;17.0;;
22675;SDS011;12521;43.310;21.876;2023-06-22T04:40:55;20.0;;;18.0;;
22675;SDS011;12521;43.310;21.876;2023-06-22T04:45:33;20.0;;;18.0;;
22675;SDS011;12521;43.310;21.876;2023-06-22T04:50:10;20.0;;;18.0;;
22675;SDS011;12521;43.310;21.876;2023-06-22T04:54:47;20.0;;;18.0;;
22675;SDS011;12521;43.310;21.876;2023-06-22T04:59:30;20.0;;;18.0;;
22675;SDS011;12521;43.310;21.876;2023-06-22T05:04:08;20.0;;;18.0;;
22675;SDS011;12521;43.310;21.876;2023-06-22T05:22:34;23.0;;;21.0;;
22675;SDS011;12521;43.310;21.876;2023-06-22T05:27:10;23.0;;;21.0;;
22675;SDS011;12521;43.310;21.876;2023-06-22T05:31:46;23.0;;;21.0;;
22675;SDS011;12521;43.310;21.876;2023-06-22T05:36:23;23.0;;;21.0;;
22675;SDS011;12521;43.310;21.876;2023-06-22T05:41:00;24.0;;;20.0;;
22675;SDS011;12521;43.310;21.876;2023-06-22T05:45:36;24.0;;;20.0;;
22675;SDS011;12521;43.310;21.876;2023-06-22T05:50:13;24.0;;;19.0;;
22675;SDS011;12521;43.310;21.876;2023-06-22T05:54:49;24.0;;;19.0;;
22675;SDS011;12521;43.310;21.876;2023-06-22T05:59:26;20.0;;;17.0;;
22675;SDS011;12521;43.310;21.876;2023-06-22T06:04:04;20.0;;;17.0;;
22675;SDS011;12521;43.310;21.876;2023-06-22T06:08:41;17.0;;;15.0;;
22675;SDS011;12521;43.310;21.876;2023-06-22T06:13:18;17.0;;;15.0;;
22675;SDS011;12521;43.310;21.876;2023-06-22T06:17:55;17.0;;;15.0;;
22675;SDS011;12521;43.310;21.876;2023-06-22T06:22:31;18.0;;;16.0;;
22675;SDS011;12521;43.310;21.876;2023-06-22T06:27:08;18.0;;;16.0;;
22675;SDS011;12521;43.310;21.876;2023-06-22T06:31:44;19.0;;;16.0;;
22675;SDS011;12521;43.310;21.876;2023-06-22T06:36:21;19.0;;;16.0;;
22675;SDS011;12521;43.310;21.876;2023-06-22T06:40:59;19.0;;;16.0;;
22675;SDS011;12521;43.310;21.876;2023-06-22T06:45:35;19.0;;;16.0;;
22675;SDS011;12521;43.310;21.876;2023-06-22T06:50:12;19.0;;;16.0;;
22675;SDS011;12521;43.310;21.876;2023-06-22T06:54:49;19.0;;;16.0;;
22675;SDS011;12521;43.310;21.876;2023-06-22T06:59:26;20.0;;;16.0;;
22675;SDS011;12521;43.310;21.876;2023-06-22T07:04:03;20.0;;;16.0;;
22675;SDS011;12521;43.310;21.876;2023-06-22T07:08:40;20.0;;;16.0;;
22675;SDS011;12521;43.310;21.876;2023-06-22T07:13:16;20.0;;;16.0;;
22675;SDS011;12521;43.310;21.876;2023-06-22T07:17:53;20.0;;;16.0;;
22675;SDS011;12521;43.310;21.876;2023-06-22T07:22:30;20.0;;;16.0;;
22675;SDS011;12521;43.310;21.876;2023-06-22T07:27:06;20.0;;;16.0;;
22675;SDS011;12521;43.310;21.876;2023-06-22T07:31:45;19.0;;;17.0;;
22675;SDS011;12521;43.310;21.876;2023-06-22T07:36:29;19.0;;;17.0;;
22675;SDS011;12521;43.310;21.876;2023-06-22T07:41:06;19.0;;;17.0;;
22675;SDS011;12521;43.310;21.876;2023-06-22T07:45:49;19.0;;;17.0;;
22675;SDS011;12521;43.310;21.876;2023-06-22T07:50:26;19.0;;;17.0;;
22675;SDS011;12521;43.310;21.876;2023-06-22T07:55:04;19.0;;;17.0;;
22675;SDS011;12521;43.310;21.876;2023-06-22T07:59:41;20.0;;;18.0;;
22675;SDS011;12521;43.310;21.876;2023-06-22T08:04:18;20.0;;;18.0;;
22675;SDS011;12521;43.310;21.876;2023-06-22T08:08:54;21.0;;;18.0;;
22675;SDS011;12521;43.310;21.876;2023-06-22T08:13:31;21.0;;;18.0;;
22675;SDS011;12521;43.310;21.876;2023-06-22T08:18:07;21.0;;;18.0;;
22675;SDS011;12521;43.310;21.876;2023-06-22T08:22:44;21.0;;;19.0;;
22675;SDS011;12521;43.310;21.876;2023-06-22T08:27:21;21.0;;;19.0;;
22675;SDS011;12521;43.310;21.876;2023-06-22T08:31:57;21.0;;;20.0;;
22675;SDS011;12521;43.310;21.876;2023-06-22T08:36:34;21.0;;;20.0;;
22675;SDS011;12521;43.310;21.876;2023-06-22T08:41:11;20.0;;;18.0;;
22675;SDS011;12521;43.310;21.876;2023-06-22T08:45:48;20.0;;;18.0;;
22675;SDS011;12521;43.310;21.876;2023-06-22T08:50:25;20.0;;;17.0;;
22675;SDS011;12521;43.310;21.876;2023-06-22T08:55:06;20.0;;;17.0;;
22675;SDS011;12521;43.310;21.876;2023-06-22T08:59:45;19.0;;;16.0;;
22675;SDS011;12521;43.310;21.876;2023-06-22T09:04:22;19.0;;;16.0;;
22675;SDS011;12521;43.310;21.876;2023-06-22T09:09:00;18.0;;;16.0;;
22675;SDS011;12521;43.310;21.876;2023-06-22T09:13:37;18.0;;;16.0;;
22675;SDS011;12521;43.310;21.876;2023-06-22T09:18:14;17.0;;;16.0;;
22675;SDS011;12521;43.310;21.876;2023-06-22T09:22:51;17.0;;;16.0;;
22675;SDS011;12521;43.310;21.876;2023-06-22T09:27:29;17.0;;;16.0;;
22675;SDS011;12521;43.310;21.876;2023-06-22T09:32:07;16.0;;;15.0;;
22675;SDS011;12521;43.310;21.876;2023-06-22T09:36:44;16.0;;;15.0;;
22675;SDS011;12521;43.310;21.876;2023-06-22T09:41:22;18.0;;;16.0;;
22675;SDS011;12521;43.310;21.876;2023-06-22T09:46:00;18.0;;;16.0;;
22675;SDS011;12521;43.310;21.876;2023-06-22T09:50:37;21.0;;;17.0;;
22675;SDS011;12521;43.310;21.876;2023-06-22T09:55:14;21.0;;;17.0;;
22675;SDS011;12521;43.310;21.876;2023-06-22T09:59:51;18.0;;;16.0;;
22675;SDS011;12521;43.310;21.876;2023-06-22T10:04:28;18.0;;;16.0;;
22675;SDS011;12521;43.310;21.876;2023-06-22T10:09:06;16.0;;;14.0;;
22675;SDS011;12521;43.310;21.876;2023-06-22T10:13:44;16.0;;;14.0;;
22675;SDS011;12521;43.310;21.876;2023-06-22T10:18:21;15.0;;;14.0;;
22675;SDS011;12521;43.310;21.876;2023-06-22T10:22:58;15.0;;;14.0;;
22675;SDS011;12521;43.310;21.876;2023-06-22T10:27:35;15.0;;;14.0;;
22675;SDS011;12521;43.310;21.876;2023-06-22T10:32:12;14.0;;;13.0;;
22675;SDS011;12521;43.310;21.876;2023-06-22T10:36:48;14.0;;;13.0;;
22675;SDS011;12521;43.310;21.876;2023-06-22T10:41:25;14.0;;;14.0;;
22675;SDS011;12521;43.310;21.876;2023-06-22T10:46:01;14.0;;;14.0;;
22675;SDS011;12521;43.310;21.876;2023-06-22T10:50:38;14.0;;;14.0;;
22675;SDS011;12521;43.310;21.876;2023-06-22T10:55:14;14.0;;;14.0;;
22675;SDS011;12521;43.310;21.876;2023-06-22T10:59:51;15.0;;;14.0;;
22675;SDS011;12521;43.310;21.876;2023-06-22T11:04:28;15.0;;;14.0;;
22675;SDS011;12521;43.310;21.876;2023-06-22T11:09:05;16.0;;;15.0;;
22675;SDS011;12521;43.310;21.876;2023-06-22T11:13:41;16.0;;;15.0;;
22675;SDS011;12521;43.310;21.876;2023-06-22T11:18:18;16.0;;;14.0;;
22675;SDS011;12521;43.310;21.876;2023-06-22T11:22:55;16.0;;;14.0;;
22675;SDS011;12521;43.310;21.876;2023-06-22T11:27:32;16.0;;;14.0;;
22675;SDS011;12521;43.310;21.876;2023-06-22T11:32:09;16.0;;;14.0;;
22675;SDS011;12521;43.310;21.876;2023-06-22T11:36:46;16.0;;;14.0;;
22675;SDS011;12521;43.310;21.876;2023-06-22T11:41:23;16.0;;;14.0;;
22675;SDS011;12521;43.310;21.876;2023-06-22T11:46:04;16.0;;;14.0;;
22675;SDS011;12521;43.310;21.876;2023-06-22T11:50:40;15.0;;;15.0;;
22675;SDS011;12521;43.310;21.876;2023-06-22T11:55:17;15.0;;;15.0;;
22675;SDS011;12521;43.310;21.876;2023-06-22T11:59:54;14.0;;;13.0;;
22675;SDS011;12521;43.310;21.876;2023-06-22T12:04:30;14.0;;;13.0;;
22675;SDS011;12521;43.310;21.876;2023-06-22T12:09:07;12.0;;;11.0;;
22675;SDS011;12521;43.310;21.876;2023-06-22T12:13:44;12.0;;;11.0;;
22675;SDS011;12521;43.310;21.876;2023-06-22T12:18:20;13.0;;;12.0;;
22675;SDS011;12521;43.310;21.876;2023-06-22T12:22:58;13.0;;;12.0;;
22675;SDS011;12521;43.310;21.876;2023-06-22T12:27:36;13.0;;;12.0;;
22675;SDS011;12521;43.310;21.876;2023-06-22T12:32:15;14.0;;;13.0;;
22675;SDS011;12521;43.310;21.876;2023-06-22T12:36:51;14.0;;;13.0;;
22675;SDS011;12521;43.310;21.876;2023-06-22T12:41:28;13.0;;;12.0;;
22675;SDS011;12521;43.310;21.876;2023-06-22T12:46:05;13.0;;;12.0;;
22675;SDS011;12521;43.310;21.876;2023-06-22T12:50:42;12.0;;;11.0;;
22675;SDS011;12521;43.310;21.876;2023-06-22T12:55:19;12.0;;;11.0;;
22675;SDS011;12521;43.310;21.876;2023-06-22T12:59:56;14.0;;;12.0;;
22675;SDS011;12521;43.310;21.876;2023-06-22T13:04:33;14.0;;;12.0;;
22675;SDS011;12521;43.310;21.876;2023-06-22T13:09:10;15.0;;;14.0;;
22675;SDS011;12521;43.310;21.876;2023-06-22T13:13:47;15.0;;;14.0;;
22675;SDS011;12521;43.310;21.876;2023-06-22T13:18:24;15.0;;;14.0;;
22675;SDS011;12521;43.310;21.876;2023-06-22T13:23:00;15.0;;;14.0;;
22675;SDS011;12521;43.310;21.876;2023-06-22T13:27:36;15.0;;;14.0;;
22675;SDS011;12521;43.310;21.876;2023-06-22T13:32:13;15.0;;;14.0;;
22675;SDS011;12521;43.310;21.876;2023-06-22T13:36:49;15.0;;;14.0;;
22675;SDS011;12521;43.310;21.876;2023-06-22T13:41:26;14.0;;;14.0;;
22675;SDS011;12521;43.310;21.876;2023-06-22T13:46:02;14.0;;;14.0;;
22675;SDS011;12521;43.310;21.876;2023-06-22T13:50:39;14.0;;;14.0;;
22675;SDS011;12521;43.310;21.876;2023-06-22T13:55:16;14.0;;;14.0;;
22675;SDS011;12521;43.310;21.876;2023-06-22T13:59:53;14.0;;;14.0;;
22675;SDS011;12521;43.310;21.876;2023-06-22T14:04:30;14.0;;;14.0;;
22675;SDS011;12521;43.310;21.876;2023-06-22T14:09:06;15.0;;;14.0;;
22675;SDS011;12521;43.310;21.876;2023-06-22T14:13:43;15.0;;;14.0;;
22675;SDS011;12521;43.310;21.876;2023-06-22T14:18:20;15.0;;;14.0;;
22675;SDS011;12521;43.310;21.876;2023-06-22T14:22:56;15.0;;;14.0;;
22675;SDS011;12521;43.310;21.876;2023-06-22T14:27:33;15.0;;;14.0;;
22675;SDS011;12521;43.310;21.876;2023-06-22T14:32:10;15.0;;;15.0;;
22675;SDS011;12521;43.310;21.876;2023-06-22T14:36:46;15.0;;;15.0;;
22675;SDS011;12521;43.310;21.876;2023-06-22T14:41:23;14.0;;;14.0;;
22675;SDS011;12521;43.310;21.876;2023-06-22T14:46:00;14.0;;;14.0;;
22675;SDS011;12521;43.310;21.876;2023-06-22T14:50:37;13.0;;;12.0;;
22675;SDS011;12521;43.310;21.876;2023-06-22T14:55:13;13.0;;;12.0;;
22675;SDS011;12521;43.310;21.876;2023-06-22T14:59:50;12.0;;;12.0;;
22675;SDS011;12521;43.310;21.876;2023-06-22T15:04:26;12.0;;;12.0;;
22675;SDS011;12521;43.310;21.876;2023-06-22T15:09:03;12.0;;;11.0;;
22675;SDS011;12521;43.310;21.876;2023-06-22T15:13:42;12.0;;;11.0;;
22675;SDS011;12521;43.310;21.876;2023-06-22T15:18:19;12.0;;;11.0;;
22675;SDS011;12521;43.310;21.876;2023-06-22T15:22:58;13.0;;;11.0;;
22675;SDS011;12521;43.310;21.876;2023-06-22T15:27:34;13.0;;;11.0;;
22675;SDS011;12521;43.310;21.876;2023-06-22T15:32:11;14.0;;;11.0;;
22675;SDS011;12521;43.310;21.876;2023-06-22T15:36:48;14.0;;;11.0;;
22675;SDS011;12521;43.310;21.876;2023-06-22T15:41:25;14.0;;;11.0;;
22675;SDS011;12521;43.310;21.876;2023-06-22T15:46:02;14.0;;;11.0;;
22675;SDS011;12521;43.310;21.876;2023-06-22T15:50:39;15.0;;;11.0;;
22675;SDS011;12521;43.310;21.876;2023-06-22T15:55:18;15.0;;;11.0;;
22675;SDS011;12521;43.310;21.876;2023-06-22T15:59:55;12.0;;;10.0;;
22675;SDS011;12521;43.310;21.876;2023-06-22T16:04:32;12.0;;;10.0;;
22675;SDS011;12521;43.310;21.876;2023-06-22T16:09:08;10.0;;;9.0;;
22675;SDS011;12521;43.310;21.876;2023-06-22T16:13:45;10.0;;;9.0;;
22675;SDS011;12521;43.310;21.876;2023-06-22T16:18:21;10.0;;;9.0;;
22675;SDS011;12521;43.310;21.876;2023-06-22T16:22:57;10.0;;;10.0;;
22675;SDS011;12521;43.310;21.876;2023-06-22T16:27:34;10.0;;;10.0;;
22675;SDS011;12521;43.310;21.876;2023-06-22T16:32:11;11.0;;;10.0;;
22675;SDS011;12521;43.310;21.876;2023-06-22T16:36:47;11.0;;;10.0;;
22675;SDS011;12521;43.310;21.876;2023-06-22T16:41:24;12.0;;;10.0;;
22675;SDS011;12521;43.310;21.876;2023-06-22T16:46:01;12.0;;;10.0;;
22675;SDS011;12521;43.310;21.876;2023-06-22T16:50:38;14.0;;;11.0;;
22675;SDS011;12521;43.310;21.876;2023-06-22T16:55:15;14.0;;;11.0;;
22675;SDS011;12521;43.310;21.876;2023-06-22T16:59:53;14.0;;;12.0;;
22675;SDS011;12521;43.310;21.876;2023-06-22T17:04:36;14.0;;;12.0;;
22675;SDS011;12521;43.310;21.876;2023-06-22T17:09:26;13.0;;;12.0;;
22675;SDS011;12521;43.310;21.876;2023-06-22T17:14:03;13.0;;;12.0;;
22675;SDS011;12521;43.310;21.876;2023-06-22T17:18:44;14.0;;;12.0;;
22675;SDS011;12521;43.310;21.876;2023-06-22T17:23:26;14.0;;;12.0;;
22675;SDS011;12521;43.310;21.876;2023-06-22T17:28:04;14.0;;;12.0;;
22675;SDS011;12521;43.310;21.876;2023-06-22T17:32:48;15.0;;;12.0;;
22675;SDS011;12521;43.310;21.876;2023-06-22T17:37:25;15.0;;;12.0;;
22675;SDS011;12521;43.310;21.876;2023-06-22T17:42:07;14.0;;;12.0;;
22675;SDS011;12521;43.310;21.876;2023-06-22T17:46:44;14.0;;;12.0;;
22675;SDS011;12521;43.310;21.876;2023-06-22T17:51:21;12.0;;;11.0;;
22675;SDS011;12521;43.310;21.876;2023-06-22T17:56:00;12.0;;;11.0;;
22675;SDS011;12521;43.310;21.876;2023-06-22T18:00:36;13.0;;;12.0;;
22675;SDS011;12521;43.310;21.876;2023-06-22T18:05:28;13.0;;;12.0;;
22675;SDS011;12521;43.310;21.876;2023-06-22T18:10:10;14.0;;;12.0;;
22675;SDS011;12521;43.310;21.876;2023-06-22T18:14:48;14.0;;;12.0;;
22675;SDS011;12521;43.310;21.876;2023-06-22T18:19:30;14.0;;;12.0;;
22675;SDS011;12521;43.310;21.876;2023-06-22T18:24:16;14.0;;;12.0;;
22675;SDS011;12521;43.310;21.876;2023-06-22T18:28:57;14.0;;;12.0;;
22675;SDS011;12521;43.310;21.876;2023-06-22T18:33:34;14.0;;;12.0;;
22675;SDS011;12521;43.310;21.876;2023-06-22T18:38:12;14.0;;;12.0;;
22675;SDS011;12521;43.310;21.876;2023-06-22T18:42:50;14.0;;;12.0;;
22675;SDS011;12521;43.310;21.876;2023-06-22T18:47:30;14.0;;;12.0;;
22675;SDS011;12521;43.310;21.876;2023-06-22T18:52:25;13.0;;;12.0;;
22675;SDS011;12521;43.310;21.876;2023-06-22T18:57:15;13.0;;;12.0;;
22675;SDS011;12521;43.310;21.876;2023-06-22T19:01:52;16.0;;;14.0;;
22675;SDS011;12521;43.310;21.876;2023-06-22T19:06:55;16.0;;;14.0;;
22675;SDS011;12521;43.310;21.876;2023-06-22T19:11:32;19.0;;;17.0;;
22675;SDS011;12521;43.310;21.876;2023-06-22T19:16:08;19.0;;;17.0;;
22675;SDS011;12521;43.310;21.876;2023-06-22T19:20:49;16.0;;;14.0;;
22675;SDS011;12521;43.310;21.876;2023-06-22T19:25:36;16.0;;;14.0;;
22675;SDS011;12521;43.310;21.876;2023-06-22T19:30:24;13.0;;;11.0;;
22675;SDS011;12521;43.310;21.876;2023-06-22T19:35:07;13.0;;;11.0;;
22675;SDS011;12521;43.310;21.876;2023-06-22T19:39:45;14.0;;;10.0;;
22675;SDS011;12521;43.310;21.876;2023-06-22T19:44:22;14.0;;;10.0;;
22675;SDS011;12521;43.310;21.876;2023-06-22T19:49:04;14.0;;;9.0;;
22675;SDS011;12521;43.310;21.876;2023-06-22T19:53:41;14.0;;;9.0;;
22675;SDS011;12521;43.310;21.876;2023-06-22T19:58:21;14.0;;;9.0;;
22675;SDS011;12521;43.310;21.876;2023-06-22T20:02:58;12.0;;;8.0;;
22675;SDS011;12521;43.310;21.876;2023-06-22T20:07:38;12.0;;;8.0;;
22675;SDS011;12521;43.310;21.876;2023-06-22T20:12:23;10.0;;;8.0;;
22675;SDS011;12521;43.310;21.876;2023-06-22T20:17:00;10.0;;;8.0;;
22675;SDS011;12521;43.310;21.876;2023-06-22T20:21:38;10.0;;;8.0;;
22675;SDS011;12521;43.310;21.876;2023-06-22T20:26:18;10.0;;;8.0;;
22675;SDS011;12521;43.310;21.876;2023-06-22T20:31:07;10.0;;;8.0;;
22675;SDS011;12521;43.310;21.876;2023-06-22T20:35:45;10.0;;;8.0;;
22675;SDS011;12521;43.310;21.876;2023-06-22T20:40:24;11.0;;;9.0;;
22675;SDS011;12521;43.310;21.876;2023-06-22T20:45:04;11.0;;;9.0;;
22675;SDS011;12521;43.310;21.876;2023-06-22T20:49:43;12.0;;;10.0;;
22675;SDS011;12521;43.310;21.876;2023-06-22T20:54:20;12.0;;;10.0;;
22675;SDS011;12521;43.310;21.876;2023-06-22T20:58:57;12.0;;;9.0;;
22675;SDS011;12521;43.310;21.876;2023-06-22T21:03:34;12.0;;;9.0;;
22675;SDS011;12521;43.310;21.876;2023-06-22T21:08:11;12.0;;;9.0;;
22675;SDS011;12521;43.310;21.876;2023-06-22T21:12:49;11.0;;;8.0;;
22675;SDS011;12521;43.310;21.876;2023-06-22T21:17:26;11.0;;;8.0;;
22675;SDS011;12521;43.310;21.876;2023-06-22T21:22:04;12.0;;;9.0;;
22675;SDS011;12521;43.310;21.876;2023-06-22T21:26:41;12.0;;;9.0;;
22675;SDS011;12521;43.310;21.876;2023-06-22T21:31:18;12.0;;;10.0;;
22675;SDS011;12521;43.310;21.876;2023-06-22T21:35:54;12.0;;;10.0;;
22675;SDS011;12521;43.310;21.876;2023-06-22T21:40:31;12.0;;;10.0;;
22675;SDS011;12521;43.310;21.876;2023-06-22T21:45:10;12.0;;;10.0;;
22675;SDS011;12521;43.310;21.876;2023-06-22T21:49:46;13.0;;;11.0;;
22675;SDS011;12521;43.310;21.876;2023-06-22T21:54:23;13.0;;;11.0;;
22675;SDS011;12521;43.310;21.876;2023-06-22T21:58:59;12.0;;;11.0;;
22675;SDS011;12521;43.310;21.876;2023-06-22T22:03:36;12.0;;;11.0;;
22675;SDS011;12521;43.310;21.876;2023-06-22T22:08:13;12.0;;;11.0;;
22675;SDS011;12521;43.310;21.876;2023-06-22T22:12:52;12.0;;;11.0;;
22675;SDS011;12521;43.310;21.876;2023-06-22T22:17:28;12.0;;;11.0;;
22675;SDS011;12521;43.310;21.876;2023-06-22T22:22:05;12.0;;;11.0;;
22675;SDS011;12521;43.310;21.876;2023-06-22T22:26:42;12.0;;;11.0;;
22675;SDS011;12521;43.310;21.876;2023-06-22T22:31:19;12.0;;;11.0;;
22675;SDS011;12521;43.310;21.876;2023-06-22T22:35:56;12.0;;;11.0;;
22675;SDS011;12521;43.310;21.876;2023-06-22T22:40:33;12.0;;;10.0;;
22675;SDS011;12521;43.310;21.876;2023-06-22T22:45:10;12.0;;;10.0;;
22675;SDS011;12521;43.310;21.876;2023-06-22T22:49:47;12.0;;;10.0;;
22675;SDS011;12521;43.310;21.876;2023-06-22T22:54:23;12.0;;;10.0;;
22675;SDS011;12521;43.310;21.876;2023-06-22T22:59:00;12.0;;;10.0;;
22675;SDS011;12521;43.310;21.876;2023-06-22T23:03:37;12.0;;;10.0;;
22675;SDS011;12521;43.310;21.876;2023-06-22T23:08:14;12.0;;;10.0;;
22675;SDS011;12521;43.310;21.876;2023-06-22T23:12:51;13.0;;;10.0;;
22675;SDS011;12521;43.310;21.876;2023-06-22T23:17:27;13.0;;;10.0;;
22675;SDS011;12521;43.310;21.876;2023-06-22T23:22:05;12.0;;;10.0;;
22675;SDS011;12521;43.310;21.876;2023-06-22T23:26:42;12.0;;;10.0;;
22675;SDS011;12521;43.310;21.876;2023-06-22T23:31:19;12.0;;;10.0;;
22675;SDS011;12521;43.310;21.876;2023-06-22T23:35:56;12.0;;;10.0;;
22675;SDS011;12521;43.310;21.876;2023-06-22T23:40:32;13.0;;;10.0;;
22675;SDS011;12521;43.310;21.876;2023-06-22T23:45:10;13.0;;;10.0;;
22675;SDS011;12521;43.310;21.876;2023-06-22T23:49:46;14.0;;;11.0;;
22675;SDS011;12521;43.310;21.876;2023-06-22T23:54:23;14.0;;;11.0;;
22675;SDS011;12521;43.310;21.876;2023-06-22T23:59:00;14.0;;;11.0;;
